Time;durP1;ratioP1;P1;durP2;ratioP2;P2;SDS_P1;SDS_P2;PMS_P1;PMS_P2;Temp;Humidity;BMP_temperature;BMP_pressure;BME280_temperature;BME280_humidity;BME280_pressure;Samples;Min_cycle;Max_cycle;Signal;HPM_P1;HPM_P2
2022/07/03 00:01:54;;;;;;;4.27;2.00;;;17.00;93.10;;;;;;5067062;28;21303;-47
2022/07/03 00:04:21;;;;;;;2.67;1.80;;;16.90;93.40;;;;;;5062810;28;21011;-47
2022/07/03 00:06:48;;;;;;;2.13;1.93;;;16.80;93.30;;;;;;5050521;28;20532;-47
2022/07/03 00:09:15;;;;;;;2.20;1.87;;;16.70;94.00;;;;;;5058017;28;20482;-47
2022/07/03 00:11:44;;;;;;;3.60;2.53;;;16.40;94.60;;;;;;5061525;28;20509;-47
2022/07/03 00:14:11;;;;;;;2.60;1.73;;;16.40;94.50;;;;;;5053707;28;20483;-47
2022/07/03 00:16:38;;;;;;;2.63;1.90;;;16.40;94.20;;;;;;5055598;28;20489;-47
2022/07/03 00:19:04;;;;;;;2.00;1.73;;;16.50;94.10;;;;;;5060190;28;20478;-47
2022/07/03 00:21:35;;;;;;;2.20;1.93;;;16.50;94.00;;;;;;5064963;28;20489;-47
2022/07/03 00:24:04;;;;;;;3.00;2.23;;;16.50;94.10;;;;;;5062402;28;20470;-47
2022/07/03 00:26:35;;;;;;;2.20;1.87;;;16.40;94.00;;;;;;5057408;28;20486;-47
2022/07/03 00:29:04;;;;;;;7.50;2.17;;;16.30;94.80;;;;;;5041518;28;20474;-47
2022/07/03 00:31:32;;;;;;;1.97;1.60;;;16.40;94.60;;;;;;5057933;28;20485;-48
2022/07/03 00:34:00;;;;;;;2.40;1.70;;;;;;;;;;5059788;28;20475;-47
2022/07/03 00:36:30;;;;;;;2.40;2.10;;;16.40;93.90;;;;;;5055537;28;21018;-47
2022/07/03 00:38:56;;;;;;;2.30;2.10;;;16.40;94.10;;;;;;5058719;28;20471;-47
2022/07/03 00:41:28;;;;;;;2.30;1.83;;;16.20;94.00;;;;;;5051892;28;20481;-47
2022/07/03 00:43:55;;;;;;;2.20;2.00;;;16.20;94.40;;;;;;5061568;28;20902;-47
2022/07/03 00:46:25;;;;;;;2.37;1.57;;;16.20;94.30;;;;;;5057110;28;20646;-47
2022/07/03 00:48:53;;;;;;;3.53;1.97;;;16.20;93.70;;;;;;5064928;28;25690;-48
2022/07/03 00:51:23;;;;;;;3.67;2.30;;;16.20;93.60;;;;;;5061383;28;20478;-48
2022/07/03 00:53:52;;;;;;;2.83;2.13;;;16.20;93.60;;;;;;5061067;28;20569;-48
2022/07/03 00:56:24;;;;;;;8.77;2.10;;;16.20;93.50;;;;;;5058344;28;21023;-48
2022/07/03 00:58:53;;;;;;;2.33;1.63;;;16.20;93.40;;;;;;5058773;28;21120;-48
2022/07/03 01:01:20;;;;;;;2.63;2.00;;;16.10;93.70;;;;;;5062554;28;20561;-47
2022/07/03 01:03:54;;;;;;;13.87;2.00;;;16.10;93.50;;;;;;5060169;28;20979;-48
2022/07/03 01:06:23;;;;;;;2.83;1.90;;;16.10;93.80;;;;;;5045517;28;20532;-48
2022/07/03 01:08:51;;;;;;;2.33;1.60;;;16.10;93.50;;;;;;5060222;28;20729;-48
2022/07/03 01:11:22;;;;;;;2.03;1.80;;;16.10;93.50;;;;;;5050329;28;20493;-47
2022/07/03 01:14:01;;;;;;;2.73;1.87;;;16.10;93.50;;;;;;5060067;28;20591;-48
2022/07/03 01:16:34;;;;;;;3.60;2.10;;;16.00;93.70;;;;;;5052310;28;20492;-48
2022/07/03 01:19:11;;;;;;;2.60;1.97;;;16.00;93.60;;;;;;5055965;28;20479;-48
2022/07/03 01:21:45;;;;;;;2.10;1.53;;;16.00;93.30;;;;;;5054495;28;20558;-48
2022/07/03 01:24:29;;;;;;;2.27;1.53;;;15.90;93.40;;;;;;5051093;28;20487;-48
2022/07/03 01:27:04;;;;;;;2.80;2.27;;;15.80;93.60;;;;;;5058523;28;20471;-48
2022/07/03 01:29:41;;;;;;;2.40;1.87;;;15.70;93.90;;;;;;5013487;28;20956;-48
2022/07/03 01:32:08;;;;;;;2.43;1.97;;;15.70;93.80;;;;;;5058042;28;20477;-48
2022/07/03 01:34:37;;;;;;;2.10;1.77;;;15.60;93.80;;;;;;5047585;28;20487;-48
2022/07/03 01:37:07;;;;;;;3.83;2.30;;;15.70;93.70;;;;;;5058519;28;20489;-47
2022/07/03 01:39:36;;;;;;;2.27;1.83;;;15.70;93.90;;;;;;5058074;28;20831;-48
2022/07/03 01:42:09;;;;;;;2.30;1.67;;;15.70;93.50;;;;;;5031239;28;20528;-47
2022/07/03 01:44:38;;;;;;;3.80;2.30;;;15.60;93.70;;;;;;5045861;28;20480;-48
2022/07/03 01:47:06;;;;;;;2.30;2.00;;;15.50;93.80;;;;;;5047563;28;20483;-54
2022/07/03 01:49:35;;;;;;;2.17;1.93;;;15.50;93.70;;;;;;5036390;28;20482;-47
2022/07/03 01:52:03;;;;;;;2.60;2.10;;;15.40;93.70;;;;;;5056234;28;20487;-47
2022/07/03 01:54:32;;;;;;;2.90;2.00;;;15.40;93.80;;;;;;5054992;28;21010;-47
2022/07/03 01:57:01;;;;;;;2.30;2.00;;;15.40;93.80;;;;;;5051273;28;20482;-47
2022/07/03 01:59:29;;;;;;;2.10;1.90;;;15.30;93.80;;;;;;5054765;28;20483;-47
2022/07/03 02:02:03;;;;;;;2.23;2.00;;;15.40;93.70;;;;;;5056278;28;20479;-47
2022/07/03 02:04:34;;;;;;;2.90;2.20;;;15.30;93.80;;;;;;5057843;28;20470;-47
2022/07/03 02:07:05;;;;;;;3.27;2.30;;;15.20;93.80;;;;;;5057321;28;20479;-47
2022/07/03 02:09:44;;;;;;;2.10;1.83;;;15.20;94.00;;;;;;5063642;28;20486;-47
2022/07/03 02:12:14;;;;;;;2.73;2.10;;;15.20;93.70;;;;;;5054604;28;20497;-48
2022/07/03 02:14:49;;;;;;;2.93;2.40;;;15.20;93.70;;;;;;5059602;28;20485;-47
2022/07/03 02:17:18;;;;;;;3.60;2.10;;;15.20;93.60;;;;;;5057218;28;20519;-48
2022/07/03 02:19:51;;;;;;;2.43;2.00;;;15.20;93.90;;;;;;5058713;28;20478;-47
2022/07/03 02:22:20;;;;;;;11.13;2.30;;;15.10;93.80;;;;;;5057729;28;20482;-48
2022/07/03 02:24:48;;;;;;;2.67;2.03;;;15.10;93.70;;;;;;5052667;28;20553;-49
2022/07/03 02:27:18;;;;;;;9.47;2.50;;;15.10;94.00;;;;;;5059129;28;20493;-48
2022/07/03 02:29:50;;;;;;;4.10;2.10;;;15.10;93.70;;;;;;5056484;28;20590;-48
2022/07/03 02:32:21;;;;;;;2.40;1.83;;;15.10;93.60;;;;;;5054070;28;20482;-47
2022/07/03 02:34:55;;;;;;;3.70;1.90;;;15.00;93.70;;;;;;5054198;28;20490;-48
2022/07/03 02:37:24;;;;;;;2.30;2.10;;;14.90;93.70;;;;;;5054164;28;20489;-47
2022/07/03 02:39:58;;;;;;;2.30;1.90;;;15.00;94.00;;;;;;5054665;28;20490;-48
2022/07/03 02:42:31;;;;;;;2.47;2.20;;;14.90;93.70;;;;;;5055743;28;21338;-48
2022/07/03 02:45:04;;;;;;;2.30;1.83;;;14.80;93.70;;;;;;5055857;28;20485;-48
2022/07/03 02:47:37;;;;;;;4.00;2.20;;;14.80;93.70;;;;;;5055751;28;20558;-48
2022/07/03 02:50:08;;;;;;;4.23;2.43;;;14.80;93.60;;;;;;5060603;28;20470;-48
2022/07/03 02:52:53;;;;;;;2.57;2.37;;;14.70;94.00;;;;;;5060845;28;20489;-47
2022/07/03 02:55:35;;;;;;;2.77;2.50;;;14.70;94.30;;;;;;5051419;28;21003;-48
2022/07/03 02:58:23;;;;;;;8.60;2.30;;;14.30;95.90;;;;;;5061079;28;20467;-47
2022/07/03 03:00:58;;;;;;;2.50;2.30;;;14.30;95.70;;;;;;5055293;28;20489;-48
2022/07/03 03:03:28;;;;;;;2.50;1.80;;;14.30;95.20;;;;;;5054442;28;20994;-47
2022/07/03 03:05:59;;;;;;;6.70;3.07;;;14.40;95.30;;;;;;5055495;28;20491;-47
2022/07/03 03:08:35;;;;;;;2.40;2.17;;;14.40;94.80;;;;;;5055689;28;21082;-48
2022/07/03 03:11:07;;;;;;;3.10;2.90;;;14.20;95.20;;;;;;5042090;28;20479;-48
2022/07/03 03:13:35;;;;;;;3.60;2.30;;;14.10;95.60;;;;;;5044925;28;21035;-48
2022/07/03 03:16:06;;;;;;;2.90;2.60;;;14.10;95.30;;;;;;5052065;28;20506;-48
2022/07/03 03:18:36;;;;;;;3.80;2.70;;;14.20;95.20;;;;;;5064120;28;20474;-48
2022/07/03 03:21:04;;;;;;;8.70;2.83;;;14.20;95.30;;;;;;5056416;28;21038;-47
2022/07/03 03:23:38;;;;;;;2.90;2.70;;;14.20;95.00;;;;;;5044003;28;20497;-48
2022/07/03 03:26:05;;;;;;;6.97;2.80;;;14.30;95.00;;;;;;5059706;28;20481;-48
2022/07/03 03:28:32;;;;;;;3.37;2.80;;;14.30;94.80;;;;;;5049151;28;20486;-48
2022/07/03 03:30:59;;;;;;;2.43;2.23;;;14.30;94.80;;;;;;5061170;28;20511;-47
2022/07/03 03:33:28;;;;;;;3.07;2.57;;;14.30;94.50;;;;;;5060557;28;20489;-48
2022/07/03 03:35:55;;;;;;;6.10;2.90;;;14.40;94.60;;;;;;5052645;28;20912;-48
2022/07/03 03:38:22;;;;;;;3.80;2.63;;;14.40;94.30;;;;;;5068405;28;21010;-48
2022/07/03 03:40:49;;;;;;;2.60;2.40;;;14.40;94.50;;;;;;5056982;28;20481;-48
2022/07/03 03:43:16;;;;;;;4.77;2.30;;;14.40;94.60;;;;;;5061053;28;21006;-48
2022/07/03 03:45:43;;;;;;;2.50;2.10;;;14.40;94.40;;;;;;5061177;28;20490;-48
2022/07/03 03:48:09;;;;;;;5.53;1.97;;;14.40;94.60;;;;;;5059605;28;20564;-48
2022/07/03 03:50:37;;;;;;;4.03;2.70;;;14.40;94.50;;;;;;5062813;28;20482;-48
2022/07/03 03:53:05;;;;;;;2.77;2.43;;;14.40;94.70;;;;;;5050506;28;20482;-48
2022/07/03 03:55:33;;;;;;;2.60;2.40;;;14.50;94.30;;;;;;5055705;28;20490;-48
2022/07/03 03:58:01;;;;;;;2.40;1.97;;;14.50;94.20;;;;;;5059777;28;20482;-48
2022/07/03 04:00:28;;;;;;;4.90;2.47;;;14.40;94.20;;;;;;5061422;28;20477;-48
2022/07/03 04:02:54;;;;;;;2.93;2.63;;;14.50;94.30;;;;;;5057345;28;20487;-49
2022/07/03 04:05:21;;;;;;;5.50;2.17;;;14.50;94.10;;;;;;5061312;28;20484;-48
2022/07/03 04:07:49;;;;;;;6.93;3.00;;;14.50;94.50;;;;;;5043449;28;20479;-49
2022/07/03 04:10:16;;;;;;;2.87;2.57;;;14.50;94.50;;;;;;5057010;28;20497;-49
2022/07/03 04:12:43;;;;;;;4.03;3.10;;;14.50;94.30;;;;;;5062457;28;20486;-48
2022/07/03 04:15:10;;;;;;;6.43;2.53;;;14.50;94.40;;;;;;5054930;28;20493;-48
2022/07/03 04:17:37;;;;;;;4.37;2.97;;;14.50;94.40;;;;;;5047564;28;20482;-48
2022/07/03 04:20:05;;;;;;;5.50;2.83;;;14.50;94.90;;;;;;5058330;28;20485;-48
2022/07/03 04:22:32;;;;;;;5.90;3.40;;;14.50;95.00;;;;;;5053314;28;21913;-48
2022/07/03 04:25:00;;;;;;;4.83;2.80;;;14.60;95.10;;;;;;5059510;28;20483;-48
2022/07/03 04:27:27;;;;;;;3.77;2.97;;;14.70;95.10;;;;;;5060796;28;20497;-49
2022/07/03 04:29:53;;;;;;;2.90;2.60;;;14.70;95.40;;;;;;5060977;28;20474;-49
2022/07/03 04:32:20;;;;;;;5.60;3.23;;;;;;;;;;5057341;28;20491;-49
2022/07/03 04:34:47;;;;;;;7.87;2.53;;;14.60;95.50;;;;;;5057421;28;21176;-49
2022/07/03 04:37:14;;;;;;;2.97;2.40;;;14.70;95.40;;;;;;5055460;28;20966;-48
2022/07/03 04:39:41;;;;;;;2.80;2.03;;;14.80;95.40;;;;;;5045280;28;21198;-47
2022/07/03 04:42:09;;;;;;;3.00;2.30;;;14.90;95.40;;;;;;5060427;28;20589;-47
2022/07/03 04:44:36;;;;;;;5.20;2.67;;;15.00;95.60;;;;;;5062206;28;20478;-48
2022/07/03 04:47:03;;;;;;;4.50;2.53;;;15.10;96.40;;;;;;5064166;28;20490;-48
2022/07/03 04:49:30;;;;;;;3.30;2.87;;;15.20;96.40;;;;;;5065841;28;20855;-48
2022/07/03 04:51:56;;;;;;;4.13;2.40;;;15.20;96.40;;;;;;5054598;28;20490;-47
2022/07/03 04:54:24;;;;;;;5.30;2.53;;;;;;;;;;5058504;28;20482;-47
2022/07/03 04:56:50;;;;;;;4.87;3.40;;;15.50;96.30;;;;;;5056116;28;20501;-48
2022/07/03 04:59:18;;;;;;;8.90;2.90;;;15.50;96.50;;;;;;5055438;28;20493;-48
2022/07/03 05:01:47;;;;;;;11.30;3.10;;;15.60;96.90;;;;;;5063082;28;20563;-47
2022/07/03 05:04:14;;;;;;;4.20;3.30;;;15.80;96.90;;;;;;5030478;28;21017;-48
2022/07/03 05:06:41;;;;;;;11.03;3.43;;;16.00;97.20;;;;;;5057406;28;20475;-47
2022/07/03 05:09:08;;;;;;;3.87;3.30;;;16.40;97.00;;;;;;5059051;28;20490;-47
2022/07/03 05:11:35;;;;;;;6.27;3.50;;;16.40;96.90;;;;;;5063925;28;20498;-48
2022/07/03 05:14:02;;;;;;;7.43;2.80;;;16.50;96.90;;;;;;5058970;28;20495;-48
2022/07/03 05:16:30;;;;;;;9.23;2.33;;;16.60;96.70;;;;;;5055899;28;20486;-48
2022/07/03 05:18:57;;;;;;;5.40;3.90;;;16.80;96.20;;;;;;5054630;28;20487;-48
2022/07/03 05:21:24;;;;;;;3.10;2.80;;;16.80;96.80;;;;;;5059461;28;20486;-49
2022/07/03 05:23:51;;;;;;;5.83;2.83;;;16.90;97.80;;;;;;5060856;28;20471;-48
2022/07/03 05:26:18;;;;;;;7.10;2.90;;;16.90;98.20;;;;;;5051096;28;20501;-48
2022/07/03 05:28:45;;;;;;;6.03;2.70;;;16.90;98.30;;;;;;5036628;28;20478;-49
2022/07/03 05:31:12;;;;;;;2.87;2.67;;;17.10;98.90;;;;;;5057877;28;20529;-48
2022/07/03 05:33:40;;;;;;;4.80;2.80;;;17.30;99.40;;;;;;5059117;28;22001;-48
2022/07/03 05:36:07;;;;;;;6.40;2.77;;;17.50;98.60;;;;;;5057971;28;20479;-48
2022/07/03 05:41:18;;;;;;;3.00;2.70;;;17.90;98.10;;;;;;5058273;28;20523;-48
2022/07/03 05:43:45;;;;;;;3.87;3.47;;;18.00;98.50;;;;;;5033167;28;20476;-48
2022/07/03 05:46:12;;;;;;;4.60;2.67;;;18.00;98.80;;;;;;5059323;28;20475;-48
2022/07/03 05:48:40;;;;;;;4.10;3.10;;;18.20;99.20;;;;;;5059251;28;20459;-49
2022/07/03 05:51:07;;;;;;;3.77;3.17;;;18.40;98.70;;;;;;5051579;28;20475;-49
2022/07/03 05:53:34;;;;;;;3.77;2.57;;;18.50;98.40;;;;;;5058800;28;20478;-49
2022/07/03 05:56:00;;;;;;;4.17;2.07;;;18.70;97.70;;;;;;5056744;28;20574;-49
2022/07/03 05:58:27;;;;;;;2.60;2.40;;;18.90;98.10;;;;;;5061260;28;20485;-49
2022/07/03 06:00:54;;;;;;;3.73;2.50;;;18.90;98.10;;;;;;5046678;28;20901;-49
2022/07/03 06:03:21;;;;;;;2.50;2.23;;;19.10;98.70;;;;;;5055365;28;20471;-49
2022/07/03 06:05:49;;;;;;;7.17;3.27;;;19.30;97.60;;;;;;5056445;28;20482;-49
2022/07/03 06:08:16;;;;;;;3.60;2.40;;;19.40;96.60;;;;;;5060607;28;20474;-50
2022/07/03 06:10:42;;;;;;;2.53;2.30;;;19.60;96.80;;;;;;5057506;28;20483;-49
2022/07/03 06:13:09;;;;;;;2.53;2.00;;;19.80;96.40;;;;;;5051667;28;20483;-50
2022/07/03 06:15:36;;;;;;;2.40;1.93;;;20.10;95.60;;;;;;5056297;28;20482;-49
2022/07/03 06:18:03;;;;;;;2.83;1.70;;;20.30;95.40;;;;;;5058069;28;20487;-50
2022/07/03 06:20:30;;;;;;;3.07;2.03;;;20.50;94.20;;;;;;5052146;28;20480;-50
2022/07/03 06:22:58;;;;;;;5.63;2.27;;;20.50;94.60;;;;;;5056008;28;20829;-50
2022/07/03 06:25:24;;;;;;;2.27;2.00;;;20.60;93.50;;;;;;5060603;28;20486;-50
2022/07/03 06:27:51;;;;;;;3.03;2.40;;;20.80;93.60;;;;;;5061187;28;20482;-49
2022/07/03 06:30:18;;;;;;;3.60;1.97;;;20.80;92.80;;;;;;5064097;28;20523;-49
2022/07/03 06:32:45;;;;;;;3.20;2.03;;;20.90;93.20;;;;;;5065313;28;20489;-50
2022/07/03 06:35:11;;;;;;;3.03;2.23;;;21.10;93.80;;;;;;5062348;28;20487;-49
2022/07/03 06:37:38;;;;;;;2.30;1.97;;;21.20;93.40;;;;;;5060021;28;20485;-49
2022/07/03 06:40:08;;;;;;;2.77;1.73;;;21.30;92.70;;;;;;5053091;28;20483;-50
2022/07/03 06:42:34;;;;;;;3.97;2.70;;;21.60;92.70;;;;;;5066906;28;20479;-49
2022/07/03 06:45:01;;;;;;;2.30;1.87;;;21.60;92.60;;;;;;5059039;28;20479;-49
2022/07/03 06:47:28;;;;;;;6.60;2.20;;;21.80;92.70;;;;;;5059265;28;20485;-49
2022/07/03 06:49:54;;;;;;;2.00;1.40;;;21.90;92.20;;;;;;5062268;28;20477;-51
2022/07/03 06:52:21;;;;;;;2.13;1.80;;;22.00;91.50;;;;;;5061420;28;20515;-49
2022/07/03 06:54:48;;;;;;;2.57;1.83;;;22.10;91.10;;;;;;5058712;28;20486;-50
2022/07/03 06:57:16;;;;;;;3.63;1.97;;;22.30;90.50;;;;;;5051777;28;20488;-50
2022/07/03 06:59:43;;;;;;;3.03;1.70;;;22.30;90.70;;;;;;5056149;28;20497;-50
2022/07/03 07:02:10;;;;;;;2.27;1.80;;;22.50;90.70;;;;;;5064722;28;20568;-50
2022/07/03 07:04:36;;;;;;;6.33;1.87;;;22.50;91.70;;;;;;5065161;28;20489;-50
2022/07/03 07:07:03;;;;;;;4.13;1.40;;;22.80;91.80;;;;;;5058298;28;20480;-50
2022/07/03 07:09:30;;;;;;;10.90;1.40;;;23.00;91.00;;;;;;5060335;28;20482;-50
2022/07/03 07:11:57;;;;;;;2.70;1.60;;;23.30;88.90;;;;;;5061533;28;20480;-50
2022/07/03 07:14:25;;;;;;;2.77;1.73;;;23.30;89.10;;;;;;5051699;28;21058;-50
2022/07/03 07:16:52;;;;;;;1.97;1.67;;;23.60;87.40;;;;;;5038480;28;20478;-50
2022/07/03 07:19:19;;;;;;;2.30;1.40;;;23.60;85.60;;;;;;5056703;28;20485;-49
2022/07/03 07:21:45;;;;;;;2.00;1.60;;;23.60;85.50;;;;;;5064235;28;20492;-49
2022/07/03 07:24:12;;;;;;;3.70;1.90;;;23.60;85.30;;;;;;5051124;28;20477;-50
2022/07/03 07:26:39;;;;;;;4.20;1.60;;;23.70;87.50;;;;;;5050821;28;20491;-50
2022/07/03 07:29:06;;;;;;;2.17;1.83;;;23.70;84.50;;;;;;5051596;28;20471;-49
2022/07/03 07:31:34;;;;;;;2.63;1.70;;;23.80;85.00;;;;;;5052327;28;20490;-49
2022/07/03 07:34:04;;;;;;;2.00;1.40;;;24.30;86.80;;;;;;5054343;28;20457;-49
2022/07/03 07:36:30;;;;;;;2.40;1.40;;;24.20;87.30;;;;;;5059543;28;20487;-49
2022/07/03 07:38:57;;;;;;;2.80;1.73;;;24.40;84.80;;;;;;5058438;28;20487;-49
2022/07/03 07:41:24;;;;;;;6.63;2.07;;;24.60;82.90;;;;;;5063128;28;20490;-49
2022/07/03 07:43:51;;;;;;;9.13;1.67;;;24.70;83.90;;;;;;5061266;28;20483;-49
2022/07/03 07:46:17;;;;;;;2.10;1.60;;;24.90;82.70;;;;;;5049846;28;20486;-49
2022/07/03 07:48:45;;;;;;;1.70;1.17;;;25.10;84.00;;;;;;5057034;28;20475;-49
2022/07/03 07:51:12;;;;;;;2.93;1.50;;;25.30;82.90;;;;;;5059835;28;20994;-49
2022/07/03 07:53:39;;;;;;;4.13;1.20;;;25.90;82.40;;;;;;5060030;28;20456;-51
2022/07/03 07:56:06;;;;;;;3.03;2.80;;;26.00;82.50;;;;;;5057450;28;20489;-49
2022/07/03 07:58:32;;;;;;;2.30;1.60;;;26.10;77.00;;;;;;5062326;28;20528;-49
2022/07/03 08:06:40;;;;;;;2.43;1.50;;;26.30;78.30;;;;;;4996884;28;20493;-49
2022/07/03 08:09:07;;;;;;;2.50;1.77;;;26.20;79.00;;;;;;5045409;28;20453;-49
2022/07/03 08:11:34;;;;;;;1.90;1.37;;;26.20;77.20;;;;;;5059995;28;20479;-49
2022/07/03 08:14:01;;;;;;;2.03;1.57;;;26.20;78.60;;;;;;5061407;28;21269;-50
2022/07/03 08:16:28;;;;;;;2.10;1.37;;;26.30;77.50;;;;;;5057852;28;20509;-49
2022/07/03 08:18:56;;;;;;;2.13;1.10;;;26.50;77.80;;;;;;5053375;28;20490;-49
2022/07/03 08:21:23;;;;;;;3.37;1.90;;;26.70;77.70;;;;;;5062950;28;20923;-49
2022/07/03 08:23:50;;;;;;;2.40;1.53;;;26.80;76.10;;;;;;5059003;28;20533;-50
2022/07/03 08:26:17;;;;;;;3.60;1.40;;;26.80;73.80;;;;;;5059129;28;20475;-50
2022/07/03 08:28:43;;;;;;;1.90;1.27;;;26.80;75.50;;;;;;5062110;28;20517;-49
2022/07/03 08:31:10;;;;;;;1.80;1.27;;;26.80;76.90;;;;;;5060441;28;20490;-50
2022/07/03 08:33:37;;;;;;;2.07;1.60;;;26.80;72.30;;;;;;5052202;28;20494;-51
2022/07/03 08:36:07;;;;;;;2.70;1.70;;;26.80;73.70;;;;;;5058189;28;20484;-50
2022/07/03 08:38:35;;;;;;;5.10;1.30;;;26.90;73.00;;;;;;5059481;28;20478;-50
2022/07/03 08:41:03;;;;;;;1.93;1.40;;;27.00;74.70;;;;;;5050755;28;20506;-51
2022/07/03 08:43:30;;;;;;;4.00;1.50;;;27.30;73.40;;;;;;5065141;28;21004;-48
2022/07/03 08:46:00;;;;;;;2.00;1.23;;;27.30;74.10;;;;;;5055905;28;20489;-49
2022/07/03 08:48:29;;;;;;;1.90;1.47;;;27.30;74.00;;;;;;5018745;28;20493;-49
2022/07/03 08:50:57;;;;;;;4.03;1.20;;;27.20;72.10;;;;;;5057727;28;20519;-49
2022/07/03 08:53:26;;;;;;;3.40;1.40;;;27.40;74.70;;;;;;5061704;28;20483;-51
2022/07/03 08:55:53;;;;;;;1.73;1.10;;;27.40;72.80;;;;;;5060641;28;20858;-50
2022/07/03 08:58:23;;;;;;;3.27;1.47;;;27.50;71.30;;;;;;5059318;28;20486;-51
2022/07/03 09:00:50;;;;;;;2.93;1.17;;;27.50;71.90;;;;;;5058007;28;20483;-49
2022/07/03 09:03:17;;;;;;;2.10;1.90;;;27.70;73.70;;;;;;5061646;28;21106;-50
2022/07/03 09:05:44;;;;;;;2.30;1.70;;;27.70;75.50;;;;;;5056214;28;20491;-49
2022/07/03 09:08:11;;;;;;;2.63;1.20;;;27.90;71.10;;;;;;5056791;28;20471;-49
2022/07/03 09:10:39;;;;;;;2.13;1.33;;;28.00;70.60;;;;;;5061298;28;20475;-49
2022/07/03 09:13:07;;;;;;;2.27;1.30;;;27.90;70.30;;;;;;5059606;28;21489;-49
2022/07/03 09:15:34;;;;;;;3.40;1.37;;;27.90;69.30;;;;;;5057805;28;20469;-53
2022/07/03 09:18:03;;;;;;;1.90;1.00;;;28.20;70.30;;;;;;5063006;28;20475;-49
2022/07/03 09:20:32;;;;;;;2.03;1.13;;;28.30;69.50;;;;;;5051619;28;20498;-49
2022/07/03 09:23:10;;;;;;;2.27;1.00;;;28.30;68.00;;;;;;5067579;28;20467;-51
2022/07/03 09:25:51;;;;;;;2.00;1.13;;;28.30;68.90;;;;;;5044589;28;20478;-51
2022/07/03 09:28:20;;;;;;;1.90;1.20;;;28.40;67.50;;;;;;5047911;28;20449;-49
2022/07/03 09:30:57;;;;;;;3.03;1.40;;;28.40;69.30;;;;;;5060671;28;20469;-52
2022/07/03 09:33:24;;;;;;;1.80;1.00;;;28.50;69.30;;;;;;5060329;28;20570;-49
2022/07/03 09:35:53;;;;;;;3.20;1.07;;;28.60;67.70;;;;;;5053131;28;20474;-48
2022/07/03 09:38:20;;;;;;;3.03;1.27;;;28.90;68.00;;;;;;5048408;28;20812;-49
2022/07/03 09:40:51;;;;;;;2.00;1.07;;;28.90;68.30;;;;;;5058742;28;20449;-49
2022/07/03 09:43:24;;;;;;;2.23;1.20;;;29.00;69.60;;;;;;5057544;28;20473;-49
2022/07/03 09:45:53;;;;;;;3.87;1.10;;;29.10;66.30;;;;;;5054876;28;20544;-50
2022/07/03 09:48:31;;;;;;;1.70;0.80;;;29.10;65.60;;;;;;5043621;28;20787;-50
2022/07/03 09:51:16;;;;;;;3.10;1.10;;;29.20;65.90;;;;;;5052697;28;20478;-49
2022/07/03 09:53:51;;;;;;;1.90;1.03;;;29.30;68.10;;;;;;5047632;28;20478;-49
2022/07/03 09:56:21;;;;;;;2.87;1.10;;;29.10;66.10;;;;;;5056380;28;21474;-50
2022/07/03 09:59:01;;;;;;;2.53;1.20;;;29.10;65.00;;;;;;5059032;28;20458;-48
2022/07/03 10:01:28;;;;;;;2.57;0.90;;;28.90;65.00;;;;;;5060254;28;20987;-48
2022/07/03 10:03:55;;;;;;;2.13;1.27;;;28.80;63.00;;;;;;5060576;28;20477;-51
2022/07/03 10:06:22;;;;;;;2.67;1.17;;;28.80;65.70;;;;;;5057241;28;20565;-48
2022/07/03 10:08:50;;;;;;;2.67;1.20;;;28.80;64.60;;;;;;5060230;28;20771;-50
2022/07/03 10:11:17;;;;;;;2.43;1.27;;;29.00;63.00;;;;;;5054960;28;21042;-49
2022/07/03 10:13:46;;;;;;;1.90;1.20;;;29.50;66.60;;;;;;5060258;28;20478;-48
2022/07/03 10:16:14;;;;;;;1.80;1.13;;;29.50;66.50;;;;;;5055264;28;20596;-50
2022/07/03 10:18:48;;;;;;;2.13;1.20;;;29.60;65.20;;;;;;5059736;28;20975;-49
2022/07/03 10:21:15;;;;;;;6.07;1.57;;;29.70;63.50;;;;;;5061658;28;21042;-51
2022/07/03 10:23:43;;;;;;;2.03;1.20;;;29.70;62.20;;;;;;5061348;28;20497;-48
2022/07/03 10:26:11;;;;;;;2.30;1.10;;;29.80;62.20;;;;;;5053825;28;20491;-49
2022/07/03 10:28:38;;;;;;;1.80;1.00;;;29.80;64.50;;;;;;5055521;28;20486;-50
2022/07/03 10:31:07;;;;;;;2.27;1.27;;;30.00;61.00;;;;;;5056324;28;20449;-49
2022/07/03 10:33:36;;;;;;;6.80;1.10;;;30.00;62.00;;;;;;5053199;28;20441;-48
2022/07/03 10:36:05;;;;;;;3.80;1.20;;;30.10;61.00;;;;;;5060106;28;20570;-48
2022/07/03 10:38:39;;;;;;;2.13;1.10;;;29.90;63.00;;;;;;5057058;28;21005;-48
2022/07/03 10:46:43;;;;;;;3.50;1.43;;;29.70;59.60;;;;;;5044024;28;20452;-48
2022/07/03 10:49:11;;;;;;;1.90;1.10;;;29.80;60.80;;;;;;5055732;28;20465;-49
2022/07/03 10:51:55;;;;;;;1.70;1.00;;;29.90;64.70;;;;;;5062849;28;20564;-48
2022/07/03 10:54:23;;;;;;;1.97;1.00;;;29.90;65.30;;;;;;5050375;28;20479;-48
2022/07/03 10:57:07;;;;;;;2.07;1.37;;;30.30;62.20;;;;;;5055000;28;20491;-49
2022/07/03 11:00:08;;;;;;;2.30;1.37;;;30.30;60.50;;;;;;5046310;28;20453;-48
2022/07/03 11:02:38;;;;;;;2.00;1.13;;;30.40;62.70;;;;;;5045992;28;20482;-48
2022/07/03 11:05:25;;;;;;;3.60;1.33;;;30.50;64.00;;;;;;5052086;28;20490;-49
2022/07/03 11:08:08;;;;;;;3.70;1.20;;;30.50;61.80;;;;;;5049968;28;20478;-48
2022/07/03 11:10:40;;;;;;;2.67;1.10;;;30.20;62.30;;;;;;5052030;28;21314;-48
2022/07/03 11:13:16;;;;;;;3.13;0.80;;;30.20;63.70;;;;;;5053258;28;20496;-49
2022/07/03 11:15:45;;;;;;;3.40;1.83;;;30.20;64.40;;;;;;5054007;28;20853;-51
2022/07/03 11:18:21;;;;;;;2.73;1.10;;;30.20;65.30;;;;;;5058776;28;20460;-50
2022/07/03 11:21:24;;;;;;;3.63;1.10;;;30.60;62.00;;;;;;5050332;28;20926;-50
2022/07/03 11:24:28;;;;;;;2.27;1.23;;;30.50;60.10;;;;;;5049890;28;20449;-49
2022/07/03 11:27:14;;;;;;;2.17;1.50;;;30.60;60.70;;;;;;5059017;28;20457;-49
2022/07/03 11:29:41;;;;;;;2.00;1.23;;;30.40;59.20;;;;;;5036415;28;20534;-48
2022/07/03 11:32:41;;;;;;;2.40;1.30;;;30.10;58.90;;;;;;5063826;28;21286;-48
2022/07/03 11:35:29;;;;;;;1.90;1.23;;;30.20;60.60;;;;;;5048174;28;20595;-51
2022/07/03 11:37:56;;;;;;;1.77;1.00;;;30.30;61.20;;;;;;5063892;28;20501;-48
2022/07/03 11:40:29;;;;;;;2.43;1.10;;;30.10;58.30;;;;;;5059130;28;20837;-47
2022/07/03 11:42:56;;;;;;;2.83;1.47;;;29.60;59.10;;;;;;5054341;28;20477;-46
2022/07/03 11:45:24;;;;;;;2.20;1.43;;;29.70;62.00;;;;;;5065647;28;20482;-47
2022/07/03 11:47:51;;;;;;;1.70;0.80;;;29.70;59.40;;;;;;5058016;28;20478;-47
2022/07/03 11:50:19;;;;;;;2.93;1.03;;;30.10;66.60;;;;;;5061130;28;20974;-47
2022/07/03 11:52:46;;;;;;;1.70;1.13;;;30.20;67.30;;;;;;5060784;28;20480;-48
2022/07/03 11:55:13;;;;;;;3.50;1.10;;;30.50;58.80;;;;;;5048230;28;20486;-47
2022/07/03 11:57:50;;;;;;;3.50;0.90;;;30.80;59.30;;;;;;5054436;28;20448;-49
2022/07/03 12:00:17;;;;;;;2.03;1.10;;;30.90;61.00;;;;;;5057163;28;20458;-48
2022/07/03 12:02:50;;;;;;;3.33;1.30;;;30.30;56.90;;;;;;5064415;28;20832;-47
2022/07/03 12:05:17;;;;;;;2.93;1.47;;;30.30;57.50;;;;;;5046040;28;20865;-47
2022/07/03 12:07:45;;;;;;;2.10;1.00;;;30.10;57.70;;;;;;5060771;28;20856;-49
2022/07/03 12:10:11;;;;;;;1.77;1.00;;;29.80;60.20;;;;;;5067087;28;20449;-47
2022/07/03 12:12:38;;;;;;;1.73;1.03;;;29.70;62.50;;;;;;5059564;28;20453;-47
2022/07/03 12:15:05;;;;;;;2.93;1.07;;;29.30;59.40;;;;;;5059494;28;20470;-47
2022/07/03 12:17:32;;;;;;;1.80;0.97;;;29.30;62.10;;;;;;5054616;28;20480;-47
2022/07/03 12:20:02;;;;;;;1.60;0.90;;;29.30;61.00;;;;;;5061102;28;20472;-48
2022/07/03 12:22:31;;;;;;;2.30;1.20;;;29.70;64.30;;;;;;5060533;28;20872;-47
2022/07/03 12:25:01;;;;;;;1.93;1.13;;;30.10;64.70;;;;;;5043358;28;20457;-47
2022/07/03 12:27:29;;;;;;;3.40;0.90;;;30.00;60.30;;;;;;5056232;28;20528;-47
2022/07/03 12:29:56;;;;;;;6.27;1.50;;;29.80;59.00;;;;;;5060411;28;20487;-47
2022/07/03 12:32:24;;;;;;;2.97;1.40;;;29.50;59.00;;;;;;5059626;28;20958;-48
2022/07/03 12:34:51;;;;;;;2.20;1.20;;;29.50;60.50;;;;;;5058908;28;20835;-48
2022/07/03 12:37:17;;;;;;;6.67;1.40;;;29.80;63.70;;;;;;5058779;28;20464;-52
2022/07/03 12:39:45;;;;;;;3.23;1.10;;;30.30;61.00;;;;;;5061156;28;20481;-47
2022/07/03 12:42:21;;;;;;;1.77;1.10;;;30.30;60.10;;;;;;5058032;28;21431;-48
2022/07/03 12:44:58;;;;;;;2.47;1.43;;;30.50;59.40;;;;;;5029318;28;20444;-48
2022/07/03 12:47:26;;;;;;;2.57;1.20;;;30.30;57.80;;;;;;5056890;28;20976;-47
2022/07/03 12:49:57;;;;;;;3.50;1.07;;;30.30;60.00;;;;;;5060145;28;20462;-48
2022/07/03 12:52:24;;;;;;;6.60;1.70;;;30.10;57.60;;;;;;5058944;28;20564;-47
2022/07/03 12:54:51;;;;;;;1.80;1.10;;;30.00;58.50;;;;;;5057972;28;20465;-48
2022/07/03 13:00:09;;;;;;;2.47;1.03;;;30.20;59.60;;;;;;5059906;28;20456;-49
2022/07/03 13:02:36;;;;;;;4.03;1.20;;;30.20;60.50;;;;;;5057493;28;20468;-48
2022/07/03 13:05:14;;;;;;;2.53;1.17;;;30.20;59.80;;;;;;5058936;28;20480;-47
2022/07/03 13:07:42;;;;;;;3.73;1.30;;;30.20;58.50;;;;;;5056834;28;20479;-48
2022/07/03 13:10:09;;;;;;;4.83;1.40;;;30.50;57.60;;;;;;5057468;28;20529;-47
2022/07/03 13:12:46;;;;;;;2.40;1.50;;;30.50;57.90;;;;;;5056346;28;20461;-48
2022/07/03 13:15:13;;;;;;;1.70;1.10;;;30.40;57.30;;;;;;5060364;28;20684;-47
2022/07/03 13:18:04;;;;;;;3.23;1.20;;;30.60;60.00;;;;;;5054477;28;20473;-48